Station: Cape Borda  

  Atmospheric Gas Attenuation - ITU Rec 676-11   ----------------- dB/100km -----------------
Date Time Temp RH % AH g/m3 Dew Point Wind Direction Speed kph Gust kph Barometer mB Rainfall Since 9am 24GHz 47GHz 76GHz 122GHz 134GHz 241GHz
08/05 12:00 14.5 81 10.07 11.3 30 39 1031.5 0 22.7 28.8 46.3 121.6 119.0 410.4
08/05 11:50 15.6 79 10.51 12 24 28 1031.6 0 23.5 29.2 47.6 124.9 123.4 426.0
08/05 11:40 14.9 80 10.2 11.5 32 39 1031.6 0 22.9 28.9 46.7 122.5 120.2 414.7
08/05 11:30 14.5 81 10.07 11.3 28 39 1031.8 0 22.7 28.8 46.4 121.7 119.0 410.5
08/05 11:20 14.7 78 9.82 10.9 30 35 1031.9 0 22.1 28.4 45.2 118.6 115.3 397.4
08/05 11:10 14.8 82 10.39 11.8 26 33 1031.8 0 23.3 29.3 47.5 124.8 123.0 424.5
08/05 11:00 14.2 83 10.14 11.4 28 43 1031.8 0 22.8 29.1 46.8 122.9 120.5 415.5
08/05 10:50 14 88 10.61 12 28 33 1031.9 0 23.8 29.9 49.0 128.7 127.5 439.9
08/05 10:40 13.5 91 10.64 12.1 32 37 1031.9 0 23.9 30.2 49.4 129.9 128.7 444.3
08/05 10:30 13.6 93 10.95 12.5 28 37 1032 0 24.6 30.7 50.7 133.4 133.1 459.4
08/05 10:20 13.3 91 10.51 11.9 30 35 1032 0 23.7 30.0 49.0 128.7 127.2 438.9
08/05 10:10 13.9 91 10.91 12.5 26 32 1032 0 24.5 30.5 50.4 132.4 132.0 455.6
08/05 10:00 13.1 93 10.61 12 26 39 1031.9 0 23.9 30.3 49.6 130.2 129.0 445.1
08/05 09:50 13 92 10.43 11.7 30 35 1031.9 0 23.5 30.0 48.8 128.3 126.5 436.6
08/05 09:40 12.9 92 10.37 11.6 24 28 1031.8 0 23.4 29.9 48.6 127.7 125.8 434.1
08/05 09:30 13.1 91 10.38 11.7 24 35 1031.7 0 23.4 29.8 48.5 127.5 125.6 433.4
08/05 09:20 13.1 90 10.27 11.5 28 35 1031.7 0 23.2 29.6 48.1 126.2 124.1 427.9
08/05 09:10 13.1 91 10.38 11.7 30 35 1031.7 0 23.4 29.8 48.5 127.5 125.6 433.4
08/05 09:00 13.1 90 10.27 11.5 26 37 1031.7 0 23.2 29.6 48.1 126.2 124.1 427.9
08/05 08:50 13.2 92 10.56 11.9 24 32 1031.6 0 23.8 30.1 49.3 129.4 128.1 441.9
08/05 08:40 12.7 93 10.35 11.6 20 24 1031.6 0 23.4 29.9 48.6 127.8 125.9 434.1
08/05 08:30 12.6 92 10.18 11.3 22 30 1031.6 0 23.0 29.7 48.0 125.9 123.6 426.1
08/05 08:20 12.5 91 10.01 11.1 24 30 1031.6 0 22.7 29.4 47.3 124.1 121.3 418.2
08/05 08:10 13 86 9.75 10.7 24 30 1031.5 0 22.1 28.8 45.9 120.3 116.8 402.6
08/05 08:00 13 85 9.64 10.5 26 35 1031.3 0 21.8 28.6 45.4 119.1 115.2 397.1
08/05 07:50 13.1 82 9.36 10.1 26 32 1031.1 0 21.2 28.1 44.1 115.7 111.2 382.9
08/05 07:40 12.9 84 9.47 10.3 22 26 1031 0 21.5 28.3 44.7 117.2 113.0 389.2
08/05 07:30 12.7 88 9.8 10.8 22 33 1030.9 0 22.2 28.9 46.2 121.3 117.9 406.4
08/05 07:20 12.7 88 9.8 10.8 24 28 1030.8 0 22.2 28.9 46.2 121.3 117.9 406.4
08/05 07:10 12.9 85 9.58 10.4 24 28 1030.6 0 21.7 28.5 45.1 118.4 114.5 394.4
08/05 07:00 13.2 82 9.42 10.2 22 35 1030.6 0 21.3 28.1 44.3 116.2 111.8 385.1
08/05 06:50 13.3 80 9.24 9.9 28 32 1030.5 0 21.0 27.8 43.5 114.0 109.2 375.9
08/05 06:40 13.2 78 8.96 9.5 17 24 1030.6 0 20.4 27.3 42.4 111.0 105.5 363.0
08/05 06:30 13.1 81 9.24 9.9 22 35 1030.5 0 21.0 27.8 43.6 114.3 109.5 376.9
08/05 06:20 13.1 81 9.24 9.9 24 28 1030.4 0 21.0 27.8 43.6 114.3 109.4 376.9
08/05 06:10 13.3 77 8.9 9.4 22 28 1030.4 0 20.2 27.2 42.1 110.2 104.5 359.6
08/05 06:00 13.3 76 8.78 9.2 24 32 1030.4 0 20.0 27.0 41.6 108.9 102.9 353.9
08/05 05:50 13.3 76 8.78 9.2 28 33 1030.3 0 20.0 27.0 41.6 108.9 102.9 353.9
08/05 05:40 13.1 78 8.9 9.4 20 26 1030.3 0 20.2 27.2 42.2 110.5 104.8 360.5
08/05 05:30 13 78 8.85 9.3 24 33 1030.4 0 20.1 27.2 42.0 110.1 104.2 358.6
08/05 05:20 13 79 8.96 9.4 28 33 1030.4 0 20.4 27.4 42.5 111.3 105.7 363.9
08/05 05:10 12.9 80 9.02 9.5 26 30 1030.3 0 20.5 27.5 42.8 112.1 106.7 367.2
08/05 05:00 12.9 80 9.02 9.5 28 41 1030.4 0 20.5 27.5 42.8 112.1 106.7 367.2
08/05 04:50 13.2 78 8.96 9.5 26 32 1030.4 0 20.4 27.3 42.4 111.0 105.5 362.9
08/05 04:40 13.2 76 8.73 9.1 26 30 1030.3 0 19.9 26.9 41.4 108.5 102.3 352.0
08/05 04:30 13.1 76 8.67 9 24 35 1030.2 0 19.8 26.9 41.2 107.9 101.6 349.5
08/05 04:20 13.1 75 8.56 8.8 26 32 1030.2 0 19.5 26.7 40.8 106.7 100.2 344.3
08/05 04:10 13 74 8.39 8.5 24 26 1030 0 19.2 26.4 40.1 105.0 98.0 336.7
08/05 04:00 13.1 76 8.67 9 24 35 1030 0 19.8 26.9 41.2 107.9 101.6 349.5
08/05 03:50 13.1 76 8.67 9 24 32 1030.1 0 19.8 26.9 41.2 107.9 101.6 349.5
08/05 03:40 13 75 8.51 8.7 20 24 1030.2 0 19.4 26.6 40.6 106.3 99.6 342.4
08/05 03:30 13 74 8.39 8.5 26 37 1030.1 0 19.2 26.4 40.1 105.0 98.0 336.8
08/05 03:20 13.1 75 8.56 8.8 28 33 1030.2 0 19.5 26.7 40.8 106.7 100.2 344.3
08/05 03:10 13.1 76 8.67 9 20 26 1030.3 0 19.8 26.9 41.2 108.0 101.6 349.6
08/05 03:00 13 75 8.51 8.7 22 32 1030.5 0 19.4 26.6 40.6 106.4 99.6 342.5
08/05 02:50 12.9 73 8.23 8.2 19 24 1030.5 0 18.8 26.2 39.5 103.4 96.0 329.8
08/05 02:40 12.8 72 8.07 7.9 20 24 1030.6 0 18.5 26.0 38.9 101.9 94.0 322.8
08/05 02:30 12.9 70 7.89 7.6 26 37 1030.5 0 18.1 25.7 38.2 99.8 91.5 314.0
08/05 02:20 12.9 72 8.12 8 22 32 1030.6 0 18.6 26.0 39.1 102.3 94.5 324.7
08/05 02:10 12.9 72 8.12 8 30 35 1030.7 0 18.6 26.0 39.1 102.3 94.6 324.7
08/05 02:00 12.9 69 7.78 7.4 24 35 1030.9 0 17.9 25.5 37.7 98.7 90.1 309.0
08/05 01:50 13 69 7.83 7.5 30 37 1030.8 0 18.0 25.5 37.9 99.1 90.6 310.9
08/05 01:40 13 71 8.05 7.9 22 33 1030.9 0 18.4 25.9 38.8 101.4 93.5 321.1
08/05 01:30 13 73 8.28 8.3 26 35 1030.7 0 18.9 26.3 39.7 103.9 96.6 331.8
08/05 01:20 13.1 71 8.1 8 28 33 1030.7 0 18.5 25.9 38.9 101.8 94.0 323.0
08/05 01:10 13 71 8.05 7.9 28 35 1030.9 0 18.4 25.9 38.8 101.4 93.5 321.1
08/05 01:00 13.1 71 8.1 8 26 35 1030.8 0 18.5 25.9 38.9 101.8 94.1 323.0
08/05 00:50 13 69 7.83 7.5 28 33 1030.8 0 18.0 25.5 37.9 99.1 90.6 310.9
08/05 00:40 13 69 7.83 7.5 22 28 1030.8 0 18.0 25.5 37.9 99.1 90.6 310.9
08/05 00:30 13.1 69 7.87 7.5 30 43 1030.9 0 18.0 25.6 38.0 99.4 91.0 312.4
08/05 00:20 13.1 71 8.1 8 22 28 1030.9 0 18.5 26.0 38.9 101.8 94.1 323.0
08/05 00:10 13.1 68 7.76 7.3 22 28 1031 0 17.8 25.4 37.6 98.2 89.6 307.4
08/05 00:00 13.1 69 7.87 7.5 26 35 1031.1 0 18.0 25.6 38.0 99.4 91.0 312.4
07/05 23:50 13.1 67 7.65 7.1 28 32 1031.1 0 17.6 25.2 37.1 97.1 88.2 302.3
07/05 23:40 13.2 69 7.92 7.6 24 30 1031.1 0 18.2 25.6 38.2 99.8 91.6 314.3
07/05 23:30 13.2 71 8.15 8.1 28 41 1031 0 18.6 26.0 39.1 102.2 94.6 325.0
07/05 23:20 13 74 8.39 8.5 32 37 1031 0 19.2 26.5 40.1 105.1 98.1 337.0
07/05 23:10 13.2 73 8.38 8.5 24 30 1031.1 0 19.1 26.4 40.0 104.7 97.7 335.7
07/05 23:00 13 75 8.51 8.7 26 35 1031.2 0 19.4 26.7 40.6 106.4 99.7 342.7
07/05 22:50 13.1 73 8.33 8.4 28 32 1031.2 0 19.0 26.3 39.9 104.3 97.1 333.8
07/05 22:40 13.1 70 7.99 7.8 26 32 1031.3 0 18.3 25.8 38.5 100.7 92.6 318.0
07/05 22:30 13.1 70 7.99 7.8 24 32 1031.3 0 18.3 25.8 38.5 100.7 92.6 318.0
07/05 22:20 13.2 71 8.15 8.1 24 30 1031.3 0 18.6 26.0 39.1 102.3 94.6 325.0
07/05 22:10 13.2 71 8.15 8.1 22 32 1031.3 0 18.6 26.0 39.1 102.3 94.6 325.0
07/05 22:00 13 74 8.39 8.5 22 32 1031.3 0 19.2 26.5 40.2 105.1 98.1 337.1
07/05 21:50 13 74 8.39 8.5 28 33 1031.2 0 19.2 26.5 40.2 105.1 98.1 337.1
07/05 21:40 13 73 8.28 8.3 26 32 1031.3 0 18.9 26.3 39.7 103.9 96.6 331.9
07/05 21:30 13 74 8.39 8.5 24 35 1031.4 0 19.2 26.5 40.2 105.1 98.1 337.1
07/05 21:20 13.1 73 8.33 8.4 32 39 1031.3 0 19.0 26.3 39.9 104.4 97.2 333.8
07/05 21:10 13.2 68 7.81 7.4 20 24 1031.4 0 17.9 25.5 37.7 98.7 90.2 309.4
07/05 21:00 13.2 68 7.81 7.4 24 35 1031.3 0 17.9 25.5 37.7 98.6 90.2 309.3
07/05 20:50 13 67 7.6 7 24 32 1031.4 0 17.5 25.2 37.0 96.7 87.7 300.5
07/05 20:40 13 66 7.49 6.8 22 28 1031.4 0 17.2 25.0 36.6 95.5 86.2 295.5
07/05 20:30 12.9 65 7.33 6.5 20 30 1031.4 0 16.9 24.8 36.0 94.0 84.3 288.6
07/05 20:20 13 63 7.15 6.1 28 32 1031.4 0 16.5 24.5 35.2 92.0 81.8 280.1
07/05 20:10 12.8 70 7.84 7.5 19 22 1031.4 0 18.0 25.6 38.0 99.5 91.0 312.3
07/05 20:00 12.8 71 7.95 7.7 20 26 1031.5 0 18.2 25.8 38.5 100.7 92.5 317.4
07/05 19:50 12.8 69 7.73 7.3 19 24 1031.6 0 17.8 25.5 37.6 98.3 89.6 307.3
07/05 19:40 12.8 66 7.39 6.6 17 20 1031.5 0 17.0 24.9 36.3 94.7 85.1 291.7
07/05 19:30 12.8 64 7.17 6.2 19 26 1031.5 0 16.6 24.6 35.4 92.4 82.3 281.8

Last Refresh: 08-May-2026 12:09:21

Bureau of Meteorology